sensor_id;sensor_type;location;lat;lon;timestamp;pressure;altitude;pressure_sealevel;temperature;humidity
1926;BME280;964;42.606;23.588;2023-02-28T00:01:21;94957.00;;;21.11;38.63
1926;BME280;964;42.606;23.588;2023-02-28T00:03:48;94957.34;;;21.66;38.06
1926;BME280;964;42.606;23.588;2023-02-28T00:06:17;94956.47;;;21.23;38.51
1926;BME280;964;42.606;23.588;2023-02-28T00:08:44;94969.56;;;20.90;39.22
1926;BME280;964;42.606;23.588;2023-02-28T00:11:13;94968.19;;;21.36;38.10
1926;BME280;964;42.606;23.588;2023-02-28T00:13:41;94959.41;;;22.05;37.05
1926;BME280;964;42.606;23.588;2023-02-28T00:16:10;94958.91;;;22.53;36.88
1926;BME280;964;42.606;23.588;2023-02-28T00:18:38;94970.59;;;22.27;36.64
1926;BME280;964;42.606;23.588;2023-02-28T00:21:05;94977.78;;;21.90;37.13
1926;BME280;964;42.606;23.588;2023-02-28T00:23:33;94969.94;;;22.62;35.87
1926;BME280;964;42.606;23.588;2023-02-28T00:26:00;94968.69;;;22.67;35.95
1926;BME280;964;42.606;23.588;2023-02-28T00:28:27;94965.66;;;22.65;35.93
1926;BME280;964;42.606;23.588;2023-02-28T00:30:54;94952.53;;;23.03;35.35
1926;BME280;964;42.606;23.588;2023-02-28T00:33:22;94940.34;;;22.55;35.79
1926;BME280;964;42.606;23.588;2023-02-28T00:35:49;94951.22;;;22.32;36.70
1926;BME280;964;42.606;23.588;2023-02-28T00:38:16;94943.19;;;22.48;36.22
1926;BME280;964;42.606;23.588;2023-02-28T00:40:44;94945.56;;;22.46;36.77
1926;BME280;964;42.606;23.588;2023-02-28T00:43:11;94945.25;;;23.00;35.81
1926;BME280;964;42.606;23.588;2023-02-28T00:45:37;94958.09;;;22.95;35.91
1926;BME280;964;42.606;23.588;2023-02-28T00:48:04;94957.22;;;22.82;35.24
1926;BME280;964;42.606;23.588;2023-02-28T00:50:31;94957.06;;;22.89;35.24
1926;BME280;964;42.606;23.588;2023-02-28T00:52:58;94945.88;;;23.07;34.93
1926;BME280;964;42.606;23.588;2023-02-28T00:55:24;94943.09;;;23.11;34.98
1926;BME280;964;42.606;23.588;2023-02-28T00:57:53;94946.09;;;21.94;36.97
1926;BME280;964;42.606;23.588;2023-02-28T01:00:21;94943.59;;;22.27;36.25
1926;BME280;964;42.606;23.588;2023-02-28T01:02:47;94938.72;;;21.98;36.58
1926;BME280;964;42.606;23.588;2023-02-28T01:05:14;94947.78;;;21.35;37.92
1926;BME280;964;42.606;23.588;2023-02-28T01:07:41;94948.22;;;21.33;38.22
1926;BME280;964;42.606;23.588;2023-02-28T01:10:08;94937.88;;;22.02;37.06
1926;BME280;964;42.606;23.588;2023-02-28T01:12:35;94938.34;;;21.73;37.51
1926;BME280;964;42.606;23.588;2023-02-28T01:15:04;94945.59;;;21.53;37.99
1926;BME280;964;42.606;23.588;2023-02-28T01:17:31;94942.09;;;21.56;38.34
1926;BME280;964;42.606;23.588;2023-02-28T01:19:58;94946.13;;;21.68;38.01
1926;BME280;964;42.606;23.588;2023-02-28T01:22:25;94936.34;;;22.00;37.75
1926;BME280;964;42.606;23.588;2023-02-28T01:24:52;94926.97;;;22.09;37.25
1926;BME280;964;42.606;23.588;2023-02-28T01:27:18;94930.94;;;22.43;36.54
1926;BME280;964;42.606;23.588;2023-02-28T01:29:45;94929.06;;;22.60;36.30
1926;BME280;964;42.606;23.588;2023-02-28T01:32:13;94938.19;;;21.34;38.46
1926;BME280;964;42.606;23.588;2023-02-28T01:34:40;94933.56;;;22.08;36.69
1926;BME280;964;42.606;23.588;2023-02-28T01:37:06;94942.25;;;21.69;36.84
1926;BME280;964;42.606;23.588;2023-02-28T01:39:33;94948.19;;;21.60;36.80
1926;BME280;964;42.606;23.588;2023-02-28T01:42:00;94944.50;;;21.24;37.59
1926;BME280;964;42.606;23.588;2023-02-28T01:44:59;94948.06;;;21.44;36.76
1926;BME280;964;42.606;23.588;2023-02-28T01:47:29;94946.25;;;21.61;36.65
1926;BME280;964;42.606;23.588;2023-02-28T01:49:58;94948.16;;;21.64;36.40
1926;BME280;964;42.606;23.588;2023-02-28T01:52:26;94953.69;;;21.53;37.06
1926;BME280;964;42.606;23.588;2023-02-28T01:54:55;94954.50;;;21.50;36.86
1926;BME280;964;42.606;23.588;2023-02-28T01:57:26;94953.97;;;21.05;37.42
1926;BME280;964;42.606;23.588;2023-02-28T01:59:58;94959.09;;;21.26;37.44
1926;BME280;964;42.606;23.588;2023-02-28T02:02:28;94961.09;;;21.49;36.97
1926;BME280;964;42.606;23.588;2023-02-28T02:04:58;94957.78;;;22.11;36.08
1926;BME280;964;42.606;23.588;2023-02-28T02:07:30;94976.81;;;21.77;36.23
1926;BME280;964;42.606;23.588;2023-02-28T02:10:04;94974.13;;;21.77;36.71
1926;BME280;964;42.606;23.588;2023-02-28T02:12:43;94969.19;;;22.19;35.84
1926;BME280;964;42.606;23.588;2023-02-28T02:15:17;94962.88;;;22.06;35.85
1926;BME280;964;42.606;23.588;2023-02-28T02:17:48;94954.06;;;22.02;36.08
1926;BME280;964;42.606;23.588;2023-02-28T02:20:45;94960.63;;;22.24;35.26
1926;BME280;964;42.606;23.588;2023-02-28T02:26:46;94968.66;;;21.00;37.14
1926;BME280;964;42.606;23.588;2023-02-28T02:29:47;94972.97;;;21.78;36.06
1926;BME280;964;42.606;23.588;2023-02-28T02:32:32;94982.31;;;21.70;35.89
1926;BME280;964;42.606;23.588;2023-02-28T02:35:12;94985.38;;;22.19;35.76
1926;BME280;964;42.606;23.588;2023-02-28T02:37:46;94982.72;;;21.95;35.88
1926;BME280;964;42.606;23.588;2023-02-28T02:40:18;94980.94;;;22.09;35.69
1926;BME280;964;42.606;23.588;2023-02-28T02:42:51;94980.19;;;22.51;35.22
1926;BME280;964;42.606;23.588;2023-02-28T02:45:22;94980.81;;;22.16;35.61
1926;BME280;964;42.606;23.588;2023-02-28T02:47:50;94992.34;;;21.70;36.37
1926;BME280;964;42.606;23.588;2023-02-28T02:50:23;94999.16;;;21.78;35.61
1926;BME280;964;42.606;23.588;2023-02-28T02:52:53;94996.28;;;21.08;37.06
1926;BME280;964;42.606;23.588;2023-02-28T02:55:23;95001.00;;;20.26;38.27
1926;BME280;964;42.606;23.588;2023-02-28T02:57:52;95000.94;;;20.40;38.32
1926;BME280;964;42.606;23.588;2023-02-28T03:00:23;95001.78;;;20.67;37.51
1926;BME280;964;42.606;23.588;2023-02-28T03:02:54;95002.16;;;20.69;37.44
1926;BME280;964;42.606;23.588;2023-02-28T03:05:26;94993.91;;;21.14;36.78
1926;BME280;964;42.606;23.588;2023-02-28T03:07:53;95008.47;;;21.20;36.89
1926;BME280;964;42.606;23.588;2023-02-28T03:10:32;95014.69;;;19.53;39.35
1926;BME280;964;42.606;23.588;2023-02-28T03:13:13;95018.41;;;19.00;39.91
1926;BME280;964;42.606;23.588;2023-02-28T03:15:55;95015.63;;;20.32;37.46
1926;BME280;964;42.606;23.588;2023-02-28T03:18:29;95001.66;;;21.12;36.27
1926;BME280;964;42.606;23.588;2023-02-28T03:21:08;95012.88;;;21.37;35.99
1926;BME280;964;42.606;23.588;2023-02-28T03:23:44;95016.34;;;20.36;37.21
1926;BME280;964;42.606;23.588;2023-02-28T03:26:16;95030.88;;;20.42;36.83
1926;BME280;964;42.606;23.588;2023-02-28T03:28:50;95027.94;;;21.00;36.53
1926;BME280;964;42.606;23.588;2023-02-28T03:31:21;95035.81;;;20.84;36.68
1926;BME280;964;42.606;23.588;2023-02-28T03:33:51;95036.06;;;20.63;36.94
1926;BME280;964;42.606;23.588;2023-02-28T03:36:25;95034.88;;;21.01;35.56
1926;BME280;964;42.606;23.588;2023-02-28T03:38:56;95030.88;;;21.10;36.20
1926;BME280;964;42.606;23.588;2023-02-28T03:41:30;95032.94;;;20.98;35.75
1926;BME280;964;42.606;23.588;2023-02-28T03:44:03;95029.22;;;21.23;35.67
1926;BME280;964;42.606;23.588;2023-02-28T03:46:33;95035.94;;;21.08;35.49
1926;BME280;964;42.606;23.588;2023-02-28T03:49:06;95036.28;;;20.42;36.40
1926;BME280;964;42.606;23.588;2023-02-28T03:51:38;95026.41;;;20.99;34.97
1926;BME280;964;42.606;23.588;2023-02-28T03:54:08;95034.09;;;21.01;34.94
1926;BME280;964;42.606;23.588;2023-02-28T03:56:39;95037.19;;;20.99;34.80
1926;BME280;964;42.606;23.588;2023-02-28T03:59:13;95037.22;;;20.96;34.79
1926;BME280;964;42.606;23.588;2023-02-28T04:01:42;95043.47;;;20.89;34.99
1926;BME280;964;42.606;23.588;2023-02-28T04:04:10;95037.81;;;20.43;35.74
1926;BME280;964;42.606;23.588;2023-02-28T04:06:39;95035.91;;;20.77;35.50
1926;BME280;964;42.606;23.588;2023-02-28T04:09:08;95031.78;;;20.66;35.79
1926;BME280;964;42.606;23.588;2023-02-28T04:11:37;95038.72;;;21.00;35.36
1926;BME280;964;42.606;23.588;2023-02-28T04:14:05;95038.97;;;21.10;35.00
1926;BME280;964;42.606;23.588;2023-02-28T04:16:33;95039.16;;;20.95;35.02
1926;BME280;964;42.606;23.588;2023-02-28T04:19:00;95043.28;;;21.03;35.15
1926;BME280;964;42.606;23.588;2023-02-28T04:21:28;95047.31;;;20.88;35.90
1926;BME280;964;42.606;23.588;2023-02-28T04:23:56;95049.53;;;21.31;35.19
1926;BME280;964;42.606;23.588;2023-02-28T04:26:28;95039.16;;;21.29;35.33
1926;BME280;964;42.606;23.588;2023-02-28T04:28:55;95040.28;;;21.59;35.53
1926;BME280;964;42.606;23.588;2023-02-28T04:31:21;95048.78;;;21.57;34.96
1926;BME280;964;42.606;23.588;2023-02-28T04:33:48;95050.84;;;22.03;35.09
1926;BME280;964;42.606;23.588;2023-02-28T04:36:15;95057.50;;;21.95;34.84
1926;BME280;964;42.606;23.588;2023-02-28T04:38:43;95055.50;;;21.72;35.32
1926;BME280;964;42.606;23.588;2023-02-28T04:41:12;95052.66;;;22.10;34.74
1926;BME280;964;42.606;23.588;2023-02-28T04:43:39;95054.19;;;22.11;35.00
1926;BME280;964;42.606;23.588;2023-02-28T04:46:06;95051.19;;;21.78;34.96
1926;BME280;964;42.606;23.588;2023-02-28T04:48:34;95060.38;;;21.54;35.17
1926;BME280;964;42.606;23.588;2023-02-28T04:51:02;95058.97;;;21.99;35.17
1926;BME280;964;42.606;23.588;2023-02-28T04:53:28;95056.03;;;21.64;35.88
1926;BME280;964;42.606;23.588;2023-02-28T04:55:56;95054.00;;;21.68;35.74
1926;BME280;964;42.606;23.588;2023-02-28T04:58:24;95050.88;;;21.16;36.37
1926;BME280;964;42.606;23.588;2023-02-28T05:00:52;95056.91;;;21.53;35.35
1926;BME280;964;42.606;23.588;2023-02-28T05:03:19;95056.53;;;21.25;36.00
1926;BME280;964;42.606;23.588;2023-02-28T05:05:47;95058.16;;;21.49;35.78
1926;BME280;964;42.606;23.588;2023-02-28T05:08:14;95052.25;;;21.84;34.96
1926;BME280;964;42.606;23.588;2023-02-28T05:10:40;95051.59;;;21.77;35.31
1926;BME280;964;42.606;23.588;2023-02-28T05:16:30;95061.59;;;21.76;35.32
1926;BME280;964;42.606;23.588;2023-02-28T05:18:57;95062.44;;;21.16;36.01
1926;BME280;964;42.606;23.588;2023-02-28T05:21:27;95064.13;;;20.99;36.40
1926;BME280;964;42.606;23.588;2023-02-28T05:24:02;95071.72;;;21.42;35.91
1926;BME280;964;42.606;23.588;2023-02-28T05:26:30;95067.56;;;21.37;36.48
1926;BME280;964;42.606;23.588;2023-02-28T05:28:56;95067.78;;;21.77;35.92
1926;BME280;964;42.606;23.588;2023-02-28T05:31:23;95072.84;;;21.71;36.07
1926;BME280;964;42.606;23.588;2023-02-28T05:33:51;95077.41;;;22.05;35.14
1926;BME280;964;42.606;23.588;2023-02-28T05:36:18;95079.81;;;22.45;35.40
1926;BME280;964;42.606;23.588;2023-02-28T05:38:46;95077.44;;;22.51;35.29
1926;BME280;964;42.606;23.588;2023-02-28T05:41:13;95085.06;;;22.79;34.72
1926;BME280;964;42.606;23.588;2023-02-28T05:43:40;95091.63;;;22.78;34.64
1926;BME280;964;42.606;23.588;2023-02-28T05:46:09;95091.50;;;23.25;34.42
1926;BME280;964;42.606;23.588;2023-02-28T05:48:37;95090.13;;;23.17;34.77
1926;BME280;964;42.606;23.588;2023-02-28T05:51:06;95083.31;;;23.28;34.58
1926;BME280;964;42.606;23.588;2023-02-28T05:53:33;95093.47;;;23.05;34.60
1926;BME280;964;42.606;23.588;2023-02-28T05:56:00;95075.97;;;23.29;34.38
1926;BME280;964;42.606;23.588;2023-02-28T05:58:27;95091.16;;;23.03;34.33
1926;BME280;964;42.606;23.588;2023-02-28T06:00:56;95092.47;;;23.15;34.69
1926;BME280;964;42.606;23.588;2023-02-28T06:03:22;95098.03;;;22.65;35.25
1926;BME280;964;42.606;23.588;2023-02-28T06:05:49;95097.06;;;23.18;34.27
1926;BME280;964;42.606;23.588;2023-02-28T06:08:17;95096.91;;;23.25;34.37
1926;BME280;964;42.606;23.588;2023-02-28T06:10:44;95104.84;;;22.73;34.88
1926;BME280;964;42.606;23.588;2023-02-28T06:13:11;95095.34;;;23.27;34.05
1926;BME280;964;42.606;23.588;2023-02-28T06:15:38;95094.41;;;23.34;34.39
1926;BME280;964;42.606;23.588;2023-02-28T06:18:05;95103.38;;;23.11;34.41
1926;BME280;964;42.606;23.588;2023-02-28T06:20:31;95090.38;;;23.03;34.52
1926;BME280;964;42.606;23.588;2023-02-28T06:22:59;95094.63;;;23.43;33.95
1926;BME280;964;42.606;23.588;2023-02-28T06:25:27;95089.69;;;23.58;34.16
1926;BME280;964;42.606;23.588;2023-02-28T06:27:54;95093.84;;;23.62;33.70
1926;BME280;964;42.606;23.588;2023-02-28T06:30:21;95094.06;;;23.71;33.94
1926;BME280;964;42.606;23.588;2023-02-28T06:32:50;95099.34;;;23.59;34.24
1926;BME280;964;42.606;23.588;2023-02-28T06:35:17;95103.91;;;23.62;34.60
1926;BME280;964;42.606;23.588;2023-02-28T06:37:44;95100.72;;;23.67;34.21
1926;BME280;964;42.606;23.588;2023-02-28T06:40:12;95098.56;;;23.58;34.36
1926;BME280;964;42.606;23.588;2023-02-28T06:42:41;95109.91;;;24.05;34.40
1926;BME280;964;42.606;23.588;2023-02-28T06:45:09;95104.28;;;24.16;34.17
1926;BME280;964;42.606;23.588;2023-02-28T06:47:36;95111.34;;;24.10;34.90
1926;BME280;964;42.606;23.588;2023-02-28T06:50:04;95113.53;;;23.82;34.80
1926;BME280;964;42.606;23.588;2023-02-28T06:52:31;95111.16;;;23.84;35.23
1926;BME280;964;42.606;23.588;2023-02-28T06:54:58;95119.06;;;24.11;34.76
1926;BME280;964;42.606;23.588;2023-02-28T06:57:27;95122.28;;;23.70;36.15
1926;BME280;964;42.606;23.588;2023-02-28T06:59:58;95118.41;;;23.71;36.67
1926;BME280;964;42.606;23.588;2023-02-28T07:02:25;95130.81;;;22.17;38.68
1926;BME280;964;42.606;23.588;2023-02-28T07:04:52;95126.88;;;22.71;38.51
1926;BME280;964;42.606;23.588;2023-02-28T07:07:19;95131.03;;;21.72;40.35
1926;BME280;964;42.606;23.588;2023-02-28T07:09:46;95128.72;;;22.01;40.10
1926;BME280;964;42.606;23.588;2023-02-28T07:12:12;95131.59;;;21.87;40.12
1926;BME280;964;42.606;23.588;2023-02-28T07:14:39;95128.13;;;22.17;40.15
1926;BME280;964;42.606;23.588;2023-02-28T07:17:08;95131.13;;;21.65;40.76
1926;BME280;964;42.606;23.588;2023-02-28T07:19:37;95136.66;;;21.55;41.66
1926;BME280;964;42.606;23.588;2023-02-28T07:22:04;95130.84;;;21.86;40.93
1926;BME280;964;42.606;23.588;2023-02-28T07:24:31;95138.63;;;21.81;40.67
1926;BME280;964;42.606;23.588;2023-02-28T07:26:57;95126.84;;;22.94;38.51
1926;BME280;964;42.606;23.588;2023-02-28T07:29:24;95129.31;;;22.62;39.60
1926;BME280;964;42.606;23.588;2023-02-28T07:31:51;95136.88;;;21.97;40.96
1926;BME280;964;42.606;23.588;2023-02-28T07:34:20;95124.19;;;21.64;41.14
1926;BME280;964;42.606;23.588;2023-02-28T07:36:47;95124.56;;;21.36;41.77
1926;BME280;964;42.606;23.588;2023-02-28T07:39:13;95134.38;;;21.19;42.38
1926;BME280;964;42.606;23.588;2023-02-28T07:41:40;95127.22;;;21.06;42.21
1926;BME280;964;42.606;23.588;2023-02-28T07:44:09;95125.50;;;21.83;41.03
1926;BME280;964;42.606;23.588;2023-02-28T07:46:36;95125.56;;;22.33;39.81
1926;BME280;964;42.606;23.588;2023-02-28T07:49:03;95131.59;;;21.87;40.84
1926;BME280;964;42.606;23.588;2023-02-28T07:51:31;95124.91;;;21.68;41.38
1926;BME280;964;42.606;23.588;2023-02-28T07:53:58;95134.72;;;22.62;39.85
1926;BME280;964;42.606;23.588;2023-02-28T07:56:26;95126.63;;;22.62;39.33
1926;BME280;964;42.606;23.588;2023-02-28T07:58:53;95133.78;;;22.49;39.99
1926;BME280;964;42.606;23.588;2023-02-28T08:01:20;95126.19;;;21.90;40.92
1926;BME280;964;42.606;23.588;2023-02-28T08:03:47;95131.31;;;20.80;42.92
1926;BME280;964;42.606;23.588;2023-02-28T08:06:18;95127.22;;;21.06;42.42
1926;BME280;964;42.606;23.588;2023-02-28T08:08:46;95131.31;;;21.51;41.88
1926;BME280;964;42.606;23.588;2023-02-28T08:11:14;95126.09;;;21.67;42.10
1926;BME280;964;42.606;23.588;2023-02-28T08:13:42;95127.13;;;21.16;42.87
1926;BME280;964;42.606;23.588;2023-02-28T08:16:09;95130.44;;;21.58;41.71
1926;BME280;964;42.606;23.588;2023-02-28T08:18:36;95112.97;;;22.73;40.36
1926;BME280;964;42.606;23.588;2023-02-28T08:21:06;95116.94;;;21.91;41.41
1926;BME280;964;42.606;23.588;2023-02-28T08:23:33;95122.84;;;21.79;41.32
1926;BME280;964;42.606;23.588;2023-02-28T08:26:02;95119.78;;;21.77;41.82
1926;BME280;964;42.606;23.588;2023-02-28T08:28:28;95125.44;;;21.86;41.50
1926;BME280;964;42.606;23.588;2023-02-28T08:30:55;95124.66;;;21.86;41.46
1926;BME280;964;42.606;23.588;2023-02-28T08:33:23;95132.94;;;21.45;42.09
1926;BME280;964;42.606;23.588;2023-02-28T08:35:52;95125.63;;;21.72;41.24
1926;BME280;964;42.606;23.588;2023-02-28T08:38:19;95131.66;;;21.83;41.43
1926;BME280;964;42.606;23.588;2023-02-28T08:40:45;95133.84;;;21.95;41.23
1926;BME280;964;42.606;23.588;2023-02-28T08:43:14;95142.72;;;22.19;40.48
1926;BME280;964;42.606;23.588;2023-02-28T08:45:40;95135.38;;;21.96;40.71
1926;BME280;964;42.606;23.588;2023-02-28T08:48:07;95133.91;;;21.88;41.00
1926;BME280;964;42.606;23.588;2023-02-28T08:50:34;95136.78;;;21.44;41.50
1926;BME280;964;42.606;23.588;2023-02-28T08:53:00;95134.94;;;22.25;40.91
1926;BME280;964;42.606;23.588;2023-02-28T08:55:27;95134.50;;;22.53;39.57
1926;BME280;964;42.606;23.588;2023-02-28T08:57:53;95131.94;;;21.92;41.62
1926;BME280;964;42.606;23.588;2023-02-28T09:00:22;95127.44;;;22.82;39.53
1926;BME280;964;42.606;23.588;2023-02-28T09:02:49;95137.34;;;22.69;40.13
1926;BME280;964;42.606;23.588;2023-02-28T09:05:16;95139.69;;;22.67;39.72
1926;BME280;964;42.606;23.588;2023-02-28T09:07:43;95139.44;;;22.81;39.47
1926;BME280;964;42.606;23.588;2023-02-28T09:10:10;95122.69;;;23.10;38.84
1926;BME280;964;42.606;23.588;2023-02-28T09:12:37;95128.88;;;23.30;38.99
1926;BME280;964;42.606;23.588;2023-02-28T09:15:05;95128.56;;;22.85;39.35
1926;BME280;964;42.606;23.588;2023-02-28T09:17:37;95133.00;;;22.25;39.69
1926;BME280;964;42.606;23.588;2023-02-28T09:20:06;95129.81;;;22.80;39.38
1926;BME280;964;42.606;23.588;2023-02-28T09:22:47;95128.34;;;23.38;38.01
1926;BME280;964;42.606;23.588;2023-02-28T09:25:14;95139.28;;;22.42;39.64
1926;BME280;964;42.606;23.588;2023-02-28T09:27:41;95130.44;;;24.22;36.68
1926;BME280;964;42.606;23.588;2023-02-28T09:30:14;95121.28;;;23.80;36.99
1926;BME280;964;42.606;23.588;2023-02-28T09:32:42;95144.13;;;23.01;38.73
1926;BME280;964;42.606;23.588;2023-02-28T09:35:17;95140.34;;;23.57;37.39
1926;BME280;964;42.606;23.588;2023-02-28T09:37:44;95147.94;;;22.57;38.82
1926;BME280;964;42.606;23.588;2023-02-28T09:40:12;95154.22;;;22.73;39.23
1926;BME280;964;42.606;23.588;2023-02-28T09:42:40;95148.91;;;22.66;38.76
1926;BME280;964;42.606;23.588;2023-02-28T09:45:16;95149.16;;;22.52;39.21
1926;BME280;964;42.606;23.588;2023-02-28T09:47:48;95146.44;;;22.29;39.18
1926;BME280;964;42.606;23.588;2023-02-28T09:50:23;95144.44;;;23.03;38.26
1926;BME280;964;42.606;23.588;2023-02-28T09:52:56;95136.00;;;23.01;38.92
1926;BME280;964;42.606;23.588;2023-02-28T09:55:28;95119.97;;;23.53;38.11
1926;BME280;964;42.606;23.588;2023-02-28T09:57:57;95129.97;;;23.32;38.00
1926;BME280;964;42.606;23.588;2023-02-28T10:00:29;95128.00;;;23.56;37.44
1926;BME280;964;42.606;23.588;2023-02-28T10:03:15;95128.22;;;23.03;39.08
1926;BME280;964;42.606;23.588;2023-02-28T10:05:51;95136.19;;;22.43;39.00
1926;BME280;964;42.606;23.588;2023-02-28T10:08:23;95137.75;;;22.41;39.46
1926;BME280;964;42.606;23.588;2023-02-28T10:10:55;95122.50;;;22.54;40.39
1926;BME280;964;42.606;23.588;2023-02-28T10:13:26;95127.69;;;22.68;38.76
1926;BME280;964;42.606;23.588;2023-02-28T10:15:57;95117.59;;;23.35;38.35
1926;BME280;964;42.606;23.588;2023-02-28T10:18:30;95111.94;;;24.37;37.03
1926;BME280;964;42.606;23.588;2023-02-28T10:21:02;95105.25;;;24.06;36.74
1926;BME280;964;42.606;23.588;2023-02-28T10:23:34;95106.84;;;23.31;38.84
1926;BME280;964;42.606;23.588;2023-02-28T10:26:09;95104.13;;;24.39;36.39
1926;BME280;964;42.606;23.588;2023-02-28T10:28:37;95118.69;;;23.37;37.99
1926;BME280;964;42.606;23.588;2023-02-28T10:31:04;95120.63;;;22.51;39.53
1926;BME280;964;42.606;23.588;2023-02-28T10:33:34;95118.06;;;22.67;39.69
1926;BME280;964;42.606;23.588;2023-02-28T10:36:03;95116.41;;;22.73;39.59
1926;BME280;964;42.606;23.588;2023-02-28T10:38:33;95120.34;;;22.19;40.35
1926;BME280;964;42.606;23.588;2023-02-28T10:41:05;95104.13;;;23.12;39.12
1926;BME280;964;42.606;23.588;2023-02-28T10:43:33;95109.25;;;22.40;39.99
1926;BME280;964;42.606;23.588;2023-02-28T10:46:02;95102.91;;;22.50;40.03
1926;BME280;964;42.606;23.588;2023-02-28T10:48:36;95098.81;;;23.28;38.83
1926;BME280;964;42.606;23.588;2023-02-28T10:51:04;95089.63;;;23.22;38.24
1926;BME280;964;42.606;23.588;2023-02-28T10:53:45;95087.97;;;22.65;39.35
1926;BME280;964;42.606;23.588;2023-02-28T10:56:17;95079.00;;;22.91;38.70
1926;BME280;964;42.606;23.588;2023-02-28T10:58:55;95080.13;;;22.74;39.85
1926;BME280;964;42.606;23.588;2023-02-28T11:01:24;95090.69;;;22.42;39.67
1926;BME280;964;42.606;23.588;2023-02-28T11:03:53;95075.13;;;22.92;38.46
1926;BME280;964;42.606;23.588;2023-02-28T11:06:21;95082.47;;;21.15;41.76
1926;BME280;964;42.606;23.588;2023-02-28T11:08:54;95087.00;;;21.22;41.91
1926;BME280;964;42.606;23.588;2023-02-28T11:11:22;95080.59;;;21.69;41.12
1926;BME280;964;42.606;23.588;2023-02-28T11:13:53;95084.06;;;21.70;41.42
1926;BME280;964;42.606;23.588;2023-02-28T11:16:21;95059.66;;;23.32;38.97
1926;BME280;964;42.606;23.588;2023-02-28T11:18:51;95061.19;;;23.33;38.50
1926;BME280;964;42.606;23.588;2023-02-28T11:21:23;95062.38;;;22.27;40.33
1926;BME280;964;42.606;23.588;2023-02-28T11:23:54;95068.84;;;22.10;40.10
1926;BME280;964;42.606;23.588;2023-02-28T11:26:40;95055.06;;;22.93;38.61
1926;BME280;964;42.606;23.588;2023-02-28T11:29:16;95058.09;;;22.95;38.98
1926;BME280;964;42.606;23.588;2023-02-28T11:31:57;95054.09;;;23.39;37.97
1926;BME280;964;42.606;23.588;2023-02-28T11:34:27;95063.09;;;22.31;39.85
1926;BME280;964;42.606;23.588;2023-02-28T11:36:57;95061.56;;;22.76;39.13
1926;BME280;964;42.606;23.588;2023-02-28T11:39:26;95057.19;;;22.82;39.09
1926;BME280;964;42.606;23.588;2023-02-28T11:42:11;95059.81;;;21.96;40.13
1926;BME280;964;42.606;23.588;2023-02-28T11:44:55;95048.72;;;22.14;40.19
1926;BME280;964;42.606;23.588;2023-02-28T11:47:32;95056.75;;;22.41;39.92
1926;BME280;964;42.606;23.588;2023-02-28T11:50:16;95049.91;;;22.79;38.90
1926;BME280;964;42.606;23.588;2023-02-28T11:52:52;95047.94;;;22.37;39.65
1926;BME280;964;42.606;23.588;2023-02-28T11:55:24;95047.56;;;22.81;38.73
1926;BME280;964;42.606;23.588;2023-02-28T11:58:12;95043.81;;;22.52;39.03
1926;BME280;964;42.606;23.588;2023-02-28T12:00:53;95037.16;;;23.00;39.40
1926;BME280;964;42.606;23.588;2023-02-28T12:03:28;95043.47;;;22.50;39.29
1926;BME280;964;42.606;23.588;2023-02-28T12:06:08;95032.53;;;22.57;39.69
1926;BME280;964;42.606;23.588;2023-02-28T12:08:49;95047.72;;;22.28;40.20
1926;BME280;964;42.606;23.588;2023-02-28T12:11:30;95033.50;;;22.47;39.75
1926;BME280;964;42.606;23.588;2023-02-28T12:14:21;95041.59;;;22.70;39.32
1926;BME280;964;42.606;23.588;2023-02-28T12:16:59;95039.34;;;22.65;39.33
1926;BME280;964;42.606;23.588;2023-02-28T12:19:36;95042.94;;;21.89;40.57
1926;BME280;964;42.606;23.588;2023-02-28T12:22:25;95042.59;;;22.57;39.45
1926;BME280;964;42.606;23.588;2023-02-28T12:27:51;95034.69;;;23.09;38.45
1926;BME280;964;42.606;23.588;2023-02-28T12:30:22;95050.53;;;21.97;39.94
1926;BME280;964;42.606;23.588;2023-02-28T12:32:53;95054.16;;;21.57;40.89
1926;BME280;964;42.606;23.588;2023-02-28T12:35:25;95035.00;;;22.48;40.01
1926;BME280;964;42.606;23.588;2023-02-28T12:37:56;95038.78;;;22.54;39.56
1926;BME280;964;42.606;23.588;2023-02-28T12:40:28;95038.91;;;21.74;40.38
1926;BME280;964;42.606;23.588;2023-02-28T12:43:02;95029.25;;;22.03;40.19
1926;BME280;964;42.606;23.588;2023-02-28T12:45:39;95021.56;;;22.25;40.32
1926;BME280;964;42.606;23.588;2023-02-28T12:48:09;95010.97;;;22.96;38.57
1926;BME280;964;42.606;23.588;2023-02-28T12:50:39;95018.84;;;23.27;37.65
1926;BME280;964;42.606;23.588;2023-02-28T12:53:09;95015.19;;;22.35;39.59
1926;BME280;964;42.606;23.588;2023-02-28T12:55:44;95002.19;;;24.13;37.10
1926;BME280;964;42.606;23.588;2023-02-28T12:58:16;95002.31;;;23.41;38.00
1926;BME280;964;42.606;23.588;2023-02-28T13:01:18;95003.56;;;23.72;36.76
1926;BME280;964;42.606;23.588;2023-02-28T13:06:58;94988.59;;;23.32;37.62
1926;BME280;964;42.606;23.588;2023-02-28T13:09:28;94996.84;;;23.09;38.46
1926;BME280;964;42.606;23.588;2023-02-28T13:11:58;94994.50;;;22.71;39.13
1926;BME280;964;42.606;23.588;2023-02-28T13:14:27;94988.63;;;22.53;39.34
1926;BME280;964;42.606;23.588;2023-02-28T13:17:10;94985.94;;;23.12;37.77
1926;BME280;964;42.606;23.588;2023-02-28T13:19:40;94978.00;;;23.57;37.44
1926;BME280;964;42.606;23.588;2023-02-28T13:22:17;94977.22;;;23.40;38.17
1926;BME280;964;42.606;23.588;2023-02-28T13:24:47;94980.31;;;23.23;37.95
1926;BME280;964;42.606;23.588;2023-02-28T13:27:34;94967.72;;;22.96;37.75
1926;BME280;964;42.606;23.588;2023-02-28T13:33:28;94976.41;;;22.68;38.99
1926;BME280;964;42.606;23.588;2023-02-28T13:36:25;94978.00;;;22.23;39.59
1926;BME280;964;42.606;23.588;2023-02-28T13:38:52;94975.66;;;22.44;39.20
1926;BME280;964;42.606;23.588;2023-02-28T13:41:43;94981.69;;;22.52;39.13
1926;BME280;964;42.606;23.588;2023-02-28T13:44:13;94982.09;;;21.84;39.54
1926;BME280;964;42.606;23.588;2023-02-28T13:49:43;94956.53;;;23.50;37.05
1926;BME280;964;42.606;23.588;2023-02-28T13:52:14;94951.72;;;23.58;36.80
1926;BME280;964;42.606;23.588;2023-02-28T13:54:54;94965.28;;;23.38;36.81
1926;BME280;964;42.606;23.588;2023-02-28T13:57:30;94968.19;;;24.12;36.05
1926;BME280;964;42.606;23.588;2023-02-28T14:00:17;94972.63;;;23.89;36.26